Terminal Aerodrome Forecast
Issued by NWS

Home | Current Version | Previous Version | Graphics & Text | Print | Product List | Glossary On
Versions: 1 2 3 4 5 6 7 8 9 10 11 12 13 14 15 16 17 18
000
FTUS43 KICT 150500
TAFSLN
TAF
KSLN 150522Z 1506/1606 18010KT P6SM BKN080
     FM150800 22009KT P6SM VCSH BKN050
     FM151400 36011KT P6SM VCSH OVC025
     FM152200 04010KT P6SM OVC040=

USA.gov is the U.S. government's official web portal to all federal, state and local government web resources and services.